sensor_id;sensor_type;location;lat;lon;timestamp;P1;P2;P0
55549;PMS7003;41397;49.972;18.944;2022-08-11T00:02:13;8;8;7
55549;PMS7003;41397;49.972;18.944;2022-08-11T00:07:28;18;18;14
55549;PMS7003;41397;49.972;18.944;2022-08-11T00:12:45;13;13;10
55549;PMS7003;41397;49.972;18.944;2022-08-11T00:18:08;7;7;6
55549;PMS7003;41397;49.972;18.944;2022-08-11T00:20:42;11;11;9
55549;PMS7003;41397;49.972;18.944;2022-08-11T00:23:24;8;8;8
55549;PMS7003;41397;49.972;18.944;2022-08-11T00:28:39;11;11;10
55549;PMS7003;41397;49.972;18.944;2022-08-11T00:33:54;11;11;9
55549;PMS7003;41397;49.972;18.944;2022-08-11T00:39:11;11;11;9
55549;PMS7003;41397;49.972;18.944;2022-08-11T01:22:44;15;15;12
55549;PMS7003;41397;49.972;18.944;2022-08-11T01:44:32;10;10;9
55549;PMS7003;41397;49.972;18.944;2022-08-11T01:49:55;12;12;12
55549;PMS7003;41397;49.972;18.944;2022-08-11T01:55:37;11;11;11
55549;PMS7003;41397;49.972;18.944;2022-08-11T02:00:44;10;10;10
55549;PMS7003;41397;49.972;18.944;2022-08-11T02:11:42;9;9;8
55549;PMS7003;41397;49.972;18.944;2022-08-11T02:17:06;11;11;5
55549;PMS7003;41397;49.972;18.944;2022-08-11T02:22:57;9;9;8
55549;PMS7003;41397;49.972;18.944;2022-08-11T02:28:36;10;10;8
55549;PMS7003;41397;49.972;18.944;2022-08-11T02:39:27;14;14;12
55549;PMS7003;41397;49.972;18.944;2022-08-11T02:50:19;14;14;12
55549;PMS7003;41397;49.972;18.944;2022-08-11T02:52:58;11;11;7
55549;PMS7003;41397;49.972;18.944;2022-08-11T02:55:46;9;9;9
55549;PMS7003;41397;49.972;18.944;2022-08-11T03:33:49;10;10;8
55549;PMS7003;41397;49.972;18.944;2022-08-11T04:01:07;8;8;7
55549;PMS7003;41397;49.972;18.944;2022-08-11T04:28:23;14;14;12
55549;PMS7003;41397;49.972;18.944;2022-08-11T04:33:48;20;16;14
55549;PMS7003;41397;49.972;18.944;2022-08-11T04:44:48;11;11;9
55549;PMS7003;41397;49.972;18.944;2022-08-11T05:12:25;2;2;2
55549;PMS7003;41397;49.972;18.944;2022-08-11T05:23:31;9;9;8
55549;PMS7003;41397;49.972;18.944;2022-08-11T05:25:24;18;18;11
55549;PMS7003;41397;49.972;18.944;2022-08-11T05:29:00;7;7;5
55549;PMS7003;41397;49.972;18.944;2022-08-11T05:34:33;7;7;5
55549;PMS7003;41397;49.972;18.944;2022-08-11T05:40:07;8;8;6
55549;PMS7003;41397;49.972;18.944;2022-08-11T05:45:35;8;8;6
55549;PMS7003;41397;49.972;18.944;2022-08-11T05:51:01;6;6;6
55549;PMS7003;41397;49.972;18.944;2022-08-11T05:55:55;5;5;5
55549;PMS7003;41397;49.972;18.944;2022-08-11T05:56:27;5;5;5
55549;PMS7003;41397;49.972;18.944;2022-08-11T06:01:42;6;6;5
55549;PMS7003;41397;49.972;18.944;2022-08-11T06:07:01;7;7;6
55549;PMS7003;41397;49.972;18.944;2022-08-11T06:12:22;7;7;6
55549;PMS7003;41397;49.972;18.944;2022-08-11T06:17:44;7;7;7
55549;PMS7003;41397;49.972;18.944;2022-08-11T06:23:04;2;2;1
55549;PMS7003;41397;49.972;18.944;2022-08-11T06:26:22;5;5;2
55549;PMS7003;41397;49.972;18.944;2022-08-11T06:28:27;8;8;4
55549;PMS7003;41397;49.972;18.944;2022-08-11T06:33:53;5;5;5
55549;PMS7003;41397;49.972;18.944;2022-08-11T06:39:20;9;9;6
55549;PMS7003;41397;49.972;18.944;2022-08-11T06:44:40;5;5;4
55549;PMS7003;41397;49.972;18.944;2022-08-11T06:50:00;5;5;4
55549;PMS7003;41397;49.972;18.944;2022-08-11T06:55:29;6;6;6
55549;PMS7003;41397;49.972;18.944;2022-08-11T06:56:37;8;8;7
55549;PMS7003;41397;49.972;18.944;2022-08-11T07:00:59;5;5;4
55549;PMS7003;41397;49.972;18.944;2022-08-11T07:17:23;3;3;3
55549;PMS7003;41397;49.972;18.944;2022-08-11T07:22:37;8;8;7
55549;PMS7003;41397;49.972;18.944;2022-08-11T07:27:05;7;7;3
55549;PMS7003;41397;49.972;18.944;2022-08-11T07:28:16;2;2;2
55549;PMS7003;41397;49.972;18.944;2022-08-11T07:33:52;0;0;0
55549;PMS7003;41397;49.972;18.944;2022-08-11T07:39:15;1;1;1
55549;PMS7003;41397;49.972;18.944;2022-08-11T07:44:33;4;4;4
55549;PMS7003;41397;49.972;18.944;2022-08-11T07:49:58;4;4;4
55549;PMS7003;41397;49.972;18.944;2022-08-11T07:55:25;3;3;2
55549;PMS7003;41397;49.972;18.944;2022-08-11T07:57:35;6;6;6
55549;PMS7003;41397;49.972;18.944;2022-08-11T08:00:51;5;5;5
55549;PMS7003;41397;49.972;18.944;2022-08-11T08:06:19;5;5;5
55549;PMS7003;41397;49.972;18.944;2022-08-11T08:11:45;5;5;4
55549;PMS7003;41397;49.972;18.944;2022-08-11T08:17:11;1;1;1
55549;PMS7003;41397;49.972;18.944;2022-08-11T08:22:38;1;1;1
55549;PMS7003;41397;49.972;18.944;2022-08-11T08:27:53;0;0;0
55549;PMS7003;41397;49.972;18.944;2022-08-11T08:28:09;0;0;0
55549;PMS7003;41397;49.972;18.944;2022-08-11T08:33:10;5;5;4
55549;PMS7003;41397;49.972;18.944;2022-08-11T08:38:25;1;1;1
55549;PMS7003;41397;49.972;18.944;2022-08-11T08:43:39;4;4;3
55549;PMS7003;41397;49.972;18.944;2022-08-11T08:48:55;4;4;4
55549;PMS7003;41397;49.972;18.944;2022-08-11T08:54:14;8;8;7
55549;PMS7003;41397;49.972;18.944;2022-08-11T08:58:27;5;5;4
55549;PMS7003;41397;49.972;18.944;2022-08-11T08:59:33;0;0;0
55549;PMS7003;41397;49.972;18.944;2022-08-11T09:04:51;6;6;3
55549;PMS7003;41397;49.972;18.944;2022-08-11T09:10:06;1;1;1
55549;PMS7003;41397;49.972;18.944;2022-08-11T09:15:22;0;0;0
55549;PMS7003;41397;49.972;18.944;2022-08-11T09:20:38;1;1;1
55549;PMS7003;41397;49.972;18.944;2022-08-11T09:25:54;0;0;0
55549;PMS7003;41397;49.972;18.944;2022-08-11T09:28:45;6;6;6
55549;PMS7003;41397;49.972;18.944;2022-08-11T09:31:24;1;1;1
55549;PMS7003;41397;49.972;18.944;2022-08-11T09:36:47;0;0;0
55549;PMS7003;41397;49.972;18.944;2022-08-11T09:42:13;1;1;1
55549;PMS7003;41397;49.972;18.944;2022-08-11T09:47:28;1;1;1
55549;PMS7003;41397;49.972;18.944;2022-08-11T09:52:43;2;2;1
55549;PMS7003;41397;49.972;18.944;2022-08-11T09:58:00;3;3;2
55549;PMS7003;41397;49.972;18.944;2022-08-11T09:59:02;2;2;2
55549;PMS7003;41397;49.972;18.944;2022-08-11T10:03:27;0;0;0
55549;PMS7003;41397;49.972;18.944;2022-08-11T10:08:45;6;6;5
55549;PMS7003;41397;49.972;18.944;2022-08-11T10:14:04;1;1;0
55549;PMS7003;41397;49.972;18.944;2022-08-11T10:19:33;0;0;0
55549;PMS7003;41397;49.972;18.944;2022-08-11T10:24:52;1;1;0
55549;PMS7003;41397;49.972;18.944;2022-08-11T10:29:17;1;1;1
55549;PMS7003;41397;49.972;18.944;2022-08-11T10:30:20;2;2;1
55549;PMS7003;41397;49.972;18.944;2022-08-11T10:35:46;2;2;2
55549;PMS7003;41397;49.972;18.944;2022-08-11T10:41:00;2;2;2
55549;PMS7003;41397;49.972;18.944;2022-08-11T10:46:27;0;0;0
55549;PMS7003;41397;49.972;18.944;2022-08-11T10:51:54;0;0;0
55549;PMS7003;41397;49.972;18.944;2022-08-11T10:57:21;1;1;1
55549;PMS7003;41397;49.972;18.944;2022-08-11T10:59:45;1;1;1
55549;PMS7003;41397;49.972;18.944;2022-08-11T11:02:47;3;3;3
55549;PMS7003;41397;49.972;18.944;2022-08-11T11:08:09;1;1;1
55549;PMS7003;41397;49.972;18.944;2022-08-11T11:13:40;0;0;0
55549;PMS7003;41397;49.972;18.944;2022-08-11T11:19:12;2;2;0
55549;PMS7003;41397;49.972;18.944;2022-08-11T11:24:35;1;1;1
55549;PMS7003;41397;49.972;18.944;2022-08-11T11:30:05;2;2;1
55549;PMS7003;41397;49.972;18.944;2022-08-11T11:30:24;2;2;2
55549;PMS7003;41397;49.972;18.944;2022-08-11T11:35:24;1;1;1
55549;PMS7003;41397;49.972;18.944;2022-08-11T11:40:44;0;0;0
55549;PMS7003;41397;49.972;18.944;2022-08-11T11:46:07;1;1;1
55549;PMS7003;41397;49.972;18.944;2022-08-11T11:51:22;1;1;1
55549;PMS7003;41397;49.972;18.944;2022-08-11T11:56:38;2;2;2
55549;PMS7003;41397;49.972;18.944;2022-08-11T12:00:45;0;0;0
55549;PMS7003;41397;49.972;18.944;2022-08-11T12:01:53;0;0;0
55549;PMS7003;41397;49.972;18.944;2022-08-11T12:07:09;6;6;5
55549;PMS7003;41397;49.972;18.944;2022-08-11T12:12:36;2;2;1
55549;PMS7003;41397;49.972;18.944;2022-08-11T12:18:02;1;1;1
55549;PMS7003;41397;49.972;18.944;2022-08-11T12:23:17;0;0;0
55549;PMS7003;41397;49.972;18.944;2022-08-11T12:28:43;2;2;2
55549;PMS7003;41397;49.972;18.944;2022-08-11T12:31:12;4;4;4
55549;PMS7003;41397;49.972;18.944;2022-08-11T12:34:05;0;0;0
55549;PMS7003;41397;49.972;18.944;2022-08-11T12:39:21;0;0;0
55549;PMS7003;41397;49.972;18.944;2022-08-11T12:44:48;1;1;1
55549;PMS7003;41397;49.972;18.944;2022-08-11T12:50:16;1;1;1
55549;PMS7003;41397;49.972;18.944;2022-08-11T12:55:42;1;1;0
55549;PMS7003;41397;49.972;18.944;2022-08-11T13:01:09;0;0;0
55549;PMS7003;41397;49.972;18.944;2022-08-11T13:01:39;0;0;0
55549;PMS7003;41397;49.972;18.944;2022-08-11T13:06:35;1;1;1
55549;PMS7003;41397;49.972;18.944;2022-08-11T13:11:50;1;1;1
55549;PMS7003;41397;49.972;18.944;2022-08-11T13:17:16;2;2;1
55549;PMS7003;41397;49.972;18.944;2022-08-11T13:22:36;0;0;0
55549;PMS7003;41397;49.972;18.944;2022-08-11T13:27:53;1;1;1
55549;PMS7003;41397;49.972;18.944;2022-08-11T13:32:05;0;0;0
55549;PMS7003;41397;49.972;18.944;2022-08-11T13:33:09;1;1;1
55549;PMS7003;41397;49.972;18.944;2022-08-11T13:38:24;3;3;2
55549;PMS7003;41397;49.972;18.944;2022-08-11T13:43:39;3;3;2
55549;PMS7003;41397;49.972;18.944;2022-08-11T13:48:55;2;2;2
55549;PMS7003;41397;49.972;18.944;2022-08-11T13:54:11;3;3;3
55549;PMS7003;41397;49.972;18.944;2022-08-11T13:59:30;2;2;2
55549;PMS7003;41397;49.972;18.944;2022-08-11T14:02:23;2;2;1
55549;PMS7003;41397;49.972;18.944;2022-08-11T14:04:49;0;0;0
55549;PMS7003;41397;49.972;18.944;2022-08-11T14:10:11;3;3;3
55549;PMS7003;41397;49.972;18.944;2022-08-11T14:15:30;6;6;6
55549;PMS7003;41397;49.972;18.944;2022-08-11T14:20:47;5;5;2
55549;PMS7003;41397;49.972;18.944;2022-08-11T14:26:17;2;2;2
55549;PMS7003;41397;49.972;18.944;2022-08-11T14:31:42;0;0;0
55549;PMS7003;41397;49.972;18.944;2022-08-11T14:32:43;2;2;2
55549;PMS7003;41397;49.972;18.944;2022-08-11T14:37:03;0;0;0
55549;PMS7003;41397;49.972;18.944;2022-08-11T14:42:22;2;2;2
55549;PMS7003;41397;49.972;18.944;2022-08-11T14:47:51;4;4;3
55549;PMS7003;41397;49.972;18.944;2022-08-11T14:53:08;1;1;1
55549;PMS7003;41397;49.972;18.944;2022-08-11T14:58:24;0;0;0
55549;PMS7003;41397;49.972;18.944;2022-08-11T15:03:03;0;0;0
55549;PMS7003;41397;49.972;18.944;2022-08-11T15:03:39;0;0;0
55549;PMS7003;41397;49.972;18.944;2022-08-11T15:08:53;0;0;0
55549;PMS7003;41397;49.972;18.944;2022-08-11T15:14:08;2;2;1
55549;PMS7003;41397;49.972;18.944;2022-08-11T15:19:25;0;0;0
55549;PMS7003;41397;49.972;18.944;2022-08-11T15:24:41;2;2;2
55549;PMS7003;41397;49.972;18.944;2022-08-11T15:29:56;0;0;0
55549;PMS7003;41397;49.972;18.944;2022-08-11T15:33:25;1;1;1
55549;PMS7003;41397;49.972;18.944;2022-08-11T15:35:23;1;1;1
55549;PMS7003;41397;49.972;18.944;2022-08-11T15:40:50;1;1;1
55549;PMS7003;41397;49.972;18.944;2022-08-11T15:46:22;0;0;0
55549;PMS7003;41397;49.972;18.944;2022-08-11T15:57:09;1;1;1
55549;PMS7003;41397;49.972;18.944;2022-08-11T16:02:37;3;3;3
55549;PMS7003;41397;49.972;18.944;2022-08-11T16:08:03;0;0;0
55549;PMS7003;41397;49.972;18.944;2022-08-11T16:13:17;2;2;2
55549;PMS7003;41397;49.972;18.944;2022-08-11T16:18:42;7;7;7
55549;PMS7003;41397;49.972;18.944;2022-08-11T16:24:04;6;6;6
55549;PMS7003;41397;49.972;18.944;2022-08-11T16:29:20;3;3;3
55549;PMS7003;41397;49.972;18.944;2022-08-11T16:34:23;9;9;7
55549;PMS7003;41397;49.972;18.944;2022-08-11T16:34:59;9;9;7
55549;PMS7003;41397;49.972;18.944;2022-08-11T16:40:24;4;4;4
55549;PMS7003;41397;49.972;18.944;2022-08-11T16:45:40;3;3;3
55549;PMS7003;41397;49.972;18.944;2022-08-11T16:51:07;3;3;3
55549;PMS7003;41397;49.972;18.944;2022-08-11T16:56:27;4;4;4
55549;PMS7003;41397;49.972;18.944;2022-08-11T17:01:50;1;1;1
55549;PMS7003;41397;49.972;18.944;2022-08-11T17:04:50;2;2;2
55549;PMS7003;41397;49.972;18.944;2022-08-11T17:07:06;2;2;2
55549;PMS7003;41397;49.972;18.944;2022-08-11T17:12:32;2;2;2
55549;PMS7003;41397;49.972;18.944;2022-08-11T17:18:03;4;4;4
55549;PMS7003;41397;49.972;18.944;2022-08-11T17:23:19;5;5;5
55549;PMS7003;41397;49.972;18.944;2022-08-11T17:28:46;3;3;3
55549;PMS7003;41397;49.972;18.944;2022-08-11T17:34:04;2;2;1
55549;PMS7003;41397;49.972;18.944;2022-08-11T17:35:18;4;4;4
55549;PMS7003;41397;49.972;18.944;2022-08-11T17:39:31;5;5;4
55549;PMS7003;41397;49.972;18.944;2022-08-11T17:44:47;5;5;5
55549;PMS7003;41397;49.972;18.944;2022-08-11T17:50:15;5;5;5
55549;PMS7003;41397;49.972;18.944;2022-08-11T17:55:30;0;0;0
55549;PMS7003;41397;49.972;18.944;2022-08-11T18:00:58;6;6;5
55549;PMS7003;41397;49.972;18.944;2022-08-11T18:05:43;5;5;5
55549;PMS7003;41397;49.972;18.944;2022-08-11T18:06:13;5;5;5
55549;PMS7003;41397;49.972;18.944;2022-08-11T18:11:31;1;1;1
55549;PMS7003;41397;49.972;18.944;2022-08-11T18:16:59;7;7;5
55549;PMS7003;41397;49.972;18.944;2022-08-11T18:22:35;6;6;5
55549;PMS7003;41397;49.972;18.944;2022-08-11T18:27:58;5;5;5
55549;PMS7003;41397;49.972;18.944;2022-08-11T18:33:26;5;5;4
55549;PMS7003;41397;49.972;18.944;2022-08-11T18:36:00;4;4;4
55549;PMS7003;41397;49.972;18.944;2022-08-11T18:38:57;3;3;3
55549;PMS7003;41397;49.972;18.944;2022-08-11T18:44:25;7;7;6
55549;PMS7003;41397;49.972;18.944;2022-08-11T18:49:54;5;5;5
55549;PMS7003;41397;49.972;18.944;2022-08-11T18:55:23;7;7;6
55549;PMS7003;41397;49.972;18.944;2022-08-11T19:00:50;7;7;6
55549;PMS7003;41397;49.972;18.944;2022-08-11T19:06:21;16;16;12
55549;PMS7003;41397;49.972;18.944;2022-08-11T19:06:55;7;7;7
55549;PMS7003;41397;49.972;18.944;2022-08-11T19:11:49;3;3;2
55549;PMS7003;41397;49.972;18.944;2022-08-11T19:17:18;3;3;3
55549;PMS7003;41397;49.972;18.944;2022-08-11T19:22:44;10;10;6
55549;PMS7003;41397;49.972;18.944;2022-08-11T19:28:12;9;9;7
55549;PMS7003;41397;49.972;18.944;2022-08-11T19:33:41;11;11;10
55549;PMS7003;41397;49.972;18.944;2022-08-11T19:37:23;13;13;11
55549;PMS7003;41397;49.972;18.944;2022-08-11T19:39:09;14;14;13
55549;PMS7003;41397;49.972;18.944;2022-08-11T19:44:36;14;14;10
55549;PMS7003;41397;49.972;18.944;2022-08-11T19:50:03;18;18;13
55549;PMS7003;41397;49.972;18.944;2022-08-11T19:55:30;15;15;13
55549;PMS7003;41397;49.972;18.944;2022-08-11T20:00:57;13;13;11
55549;PMS7003;41397;49.972;18.944;2022-08-11T20:06:23;8;8;8
55549;PMS7003;41397;49.972;18.944;2022-08-11T20:07:52;11;11;9
55549;PMS7003;41397;49.972;18.944;2022-08-11T20:11:52;7;7;6
55549;PMS7003;41397;49.972;18.944;2022-08-11T20:17:22;10;10;9
55549;PMS7003;41397;49.972;18.944;2022-08-11T20:22:54;10;10;10
55549;PMS7003;41397;49.972;18.944;2022-08-11T20:28:27;4;4;2
55549;PMS7003;41397;49.972;18.944;2022-08-11T20:33:56;9;9;7
55549;PMS7003;41397;49.972;18.944;2022-08-11T20:38:20;9;9;7
55549;PMS7003;41397;49.972;18.944;2022-08-11T20:39:24;8;8;7
55549;PMS7003;41397;49.972;18.944;2022-08-11T20:44:52;9;9;7
55549;PMS7003;41397;49.972;18.944;2022-08-11T20:50:21;6;6;6
55549;PMS7003;41397;49.972;18.944;2022-08-11T20:55:50;2;2;2
55549;PMS7003;41397;49.972;18.944;2022-08-11T21:01:17;4;4;4
55549;PMS7003;41397;49.972;18.944;2022-08-11T21:06:44;6;6;5
55549;PMS7003;41397;49.972;18.944;2022-08-11T21:08:48;9;9;7
55549;PMS7003;41397;49.972;18.944;2022-08-11T21:12:11;9;9;8
55549;PMS7003;41397;49.972;18.944;2022-08-11T21:17:39;8;8;8
55549;PMS7003;41397;49.972;18.944;2022-08-11T21:23:08;8;8;7
55549;PMS7003;41397;49.972;18.944;2022-08-11T21:28:37;8;8;7
55549;PMS7003;41397;49.972;18.944;2022-08-11T21:34:03;9;9;7
55549;PMS7003;41397;49.972;18.944;2022-08-11T21:39:16;54;47;31
55549;PMS7003;41397;49.972;18.944;2022-08-11T21:39:46;54;47;31
55549;PMS7003;41397;49.972;18.944;2022-08-11T21:45:14;12;12;12
55549;PMS7003;41397;49.972;18.944;2022-08-11T21:50:42;13;13;9
55549;PMS7003;41397;49.972;18.944;2022-08-11T21:56:07;36;31;22
55549;PMS7003;41397;49.972;18.944;2022-08-11T22:01:34;7;7;7
55549;PMS7003;41397;49.972;18.944;2022-08-11T22:07:00;17;14;8
55549;PMS7003;41397;49.972;18.944;2022-08-11T22:09:45;7;7;7
55549;PMS7003;41397;49.972;18.944;2022-08-11T22:12:27;12;12;9
55549;PMS7003;41397;49.972;18.944;2022-08-11T22:17:52;12;12;11
55549;PMS7003;41397;49.972;18.944;2022-08-11T22:24:46;14;14;9
55549;PMS7003;41397;49.972;18.944;2022-08-11T22:30:13;13;13;12
55549;PMS7003;41397;49.972;18.944;2022-08-11T22:35:39;11;11;11
55549;PMS7003;41397;49.972;18.944;2022-08-11T22:41:07;14;14;10
55549;PMS7003;41397;49.972;18.944;2022-08-11T22:46:33;11;11;7
55549;PMS7003;41397;49.972;18.944;2022-08-11T22:49:48;11;11;10
55549;PMS7003;41397;49.972;18.944;2022-08-11T22:52:00;9;9;8
55549;PMS7003;41397;49.972;18.944;2022-08-11T22:57:27;12;12;10
55549;PMS7003;41397;49.972;18.944;2022-08-11T23:02:54;12;12;10
55549;PMS7003;41397;49.972;18.944;2022-08-11T23:08:20;14;14;11
55549;PMS7003;41397;49.972;18.944;2022-08-11T23:13:47;10;10;6
55549;PMS7003;41397;49.972;18.944;2022-08-11T23:19:13;13;13;8
55549;PMS7003;41397;49.972;18.944;2022-08-11T23:20:20;8;8;8
55549;PMS7003;41397;49.972;18.944;2022-08-11T23:24:40;8;8;8
55549;PMS7003;41397;49.972;18.944;2022-08-11T23:30:06;12;12;10
55549;PMS7003;41397;49.972;18.944;2022-08-11T23:35:32;14;14;12
55549;PMS7003;41397;49.972;18.944;2022-08-11T23:41:02;20;20;11
55549;PMS7003;41397;49.972;18.944;2022-08-11T23:46:28;10;10;9
55549;PMS7003;41397;49.972;18.944;2022-08-11T23:50:47;17;17;11
55549;PMS7003;41397;49.972;18.944;2022-08-11T23:51:54;11;11;9
55549;PMS7003;41397;49.972;18.944;2022-08-11T23:57:22;14;14;10
